createdAt,value
2019-04-21T00:00:56.758Z,11.93
2019-04-21T00:04:03.764Z,12.20
2019-04-21T00:07:21.760Z,11.63
2019-04-21T00:10:30.134Z,12.40
2019-04-21T00:13:28.085Z,12.77
2019-04-21T00:16:25.584Z,11.90
2019-04-21T00:19:31.626Z,12.77
2019-04-21T00:22:44.050Z,11.90
2019-04-21T00:25:52.947Z,12.30
2019-04-21T00:29:09.114Z,11.90
2019-04-21T00:32:06.761Z,12.20
2019-04-21T00:35:03.116Z,11.83
2019-04-21T00:38:25.253Z,11.93
2019-04-21T00:41:33.302Z,11.50
2019-04-21T00:44:25.674Z,12.13
2019-04-21T00:47:38.825Z,11.77
2019-04-21T00:51:03.954Z,11.53
2019-04-21T00:54:04.425Z,11.73
2019-04-21T00:57:05.641Z,11.80
2019-04-21T01:00:10.621Z,11.43
2019-04-21T01:03:14.668Z,12.57
2019-04-21T01:06:22.621Z,11.73
2019-04-21T01:09:19.826Z,11.90
2019-04-21T01:12:28.283Z,10.53
2019-04-21T01:18:41.333Z,12.53
2019-04-21T01:21:25.873Z,12.10
2019-04-21T01:24:34.470Z,12.27
2019-04-21T01:28:03.899Z,11.77
2019-04-21T01:30:59.469Z,11.00
2019-04-21T01:34:08.734Z,12.47
2019-04-21T01:37:05.661Z,12.77
2019-04-21T01:40:27.321Z,12.40
2019-04-21T01:43:25.038Z,12.33
2019-04-21T01:46:25.650Z,11.87
2019-04-21T01:49:28.607Z,11.57
2019-04-21T01:52:48.307Z,12.50
2019-04-21T01:55:54.144Z,12.20
2019-04-21T01:58:46.277Z,12.37
2019-04-21T02:02:05.304Z,11.77
2019-04-21T02:05:13.712Z,12.20
2019-04-21T02:08:11.215Z,12.03
2019-04-21T02:11:24.527Z,13.10
2019-04-21T02:14:31.463Z,12.10
2019-04-21T02:17:31.049Z,13.30
2019-04-21T02:20:26.825Z,12.13
2019-04-21T02:23:46.334Z,12.23
2019-04-21T02:26:47.713Z,11.77
2019-04-21T02:29:55.196Z,11.80
2019-04-21T02:33:08.686Z,11.57
2019-04-21T02:42:31.514Z,11.47
2019-04-21T02:45:34.245Z,12.07
2019-04-21T02:48:38.951Z,12.17
2019-04-21T02:51:42.626Z,11.87
2019-04-21T02:57:59.981Z,12.87
2019-04-21T03:01:02.910Z,13.73
2019-04-21T03:04:28.111Z,13.53
2019-04-21T03:07:52.113Z,14.60
2019-04-21T03:10:49.100Z,15.13
2019-04-21T03:16:42.594Z,14.50
2019-04-21T03:20:06.901Z,14.57
2019-04-21T03:26:14.353Z,14.43
2019-04-21T03:29:12.604Z,13.63
2019-04-21T03:36:05.494Z,14.13
2019-04-21T03:38:30.826Z,13.03
2019-04-21T03:41:39.498Z,13.60
2019-04-21T03:44:40.056Z,14.27
2019-04-21T03:51:08.794Z,14.03
2019-04-21T03:53:55.890Z,14.23
2019-04-21T03:57:10.551Z,14.37
2019-04-21T04:00:27.629Z,13.97
2019-04-21T04:06:49.709Z,14.10
2019-04-21T04:10:08.076Z,14.87
2019-04-21T04:13:00.884Z,16.13
2019-04-21T04:16:13.830Z,15.57
2019-04-21T04:19:11.949Z,17.60
2019-04-21T04:22:24.743Z,19.67
2019-04-21T04:25:17.505Z,19.70
2019-04-21T04:28:40.879Z,20.23
2019-04-21T04:34:48.449Z,20.20
2019-04-21T04:37:47.048Z,20.00
2019-04-21T04:40:55.582Z,19.40
2019-04-21T04:44:07.142Z,19.77
2019-04-21T04:47:12.192Z,20.20
2019-04-21T04:50:08.212Z,19.33
2019-04-21T04:53:25.865Z,19.30
2019-04-21T04:56:26.040Z,20.80
2019-04-21T04:59:43.064Z,20.90
2019-04-21T05:06:10.553Z,20.87
2019-04-21T05:12:05.995Z,18.20
2019-04-21T05:18:13.380Z,18.33
2019-04-21T05:21:29.979Z,17.60
2019-04-21T05:24:16.536Z,15.20
2019-04-21T05:27:29.450Z,16.17
2019-04-21T05:31:04.777Z,15.87
2019-04-21T05:34:10.825Z,15.90
2019-04-21T05:37:14.258Z,16.00
2019-04-21T05:40:18.372Z,16.83
2019-04-21T05:43:32.588Z,16.82
2019-04-21T05:46:39.763Z,17.42
2019-04-21T05:49:45.225Z,17.65
2019-04-21T05:52:44.675Z,19.52
2019-04-21T05:56:08.338Z,17.77
2019-04-21T05:59:02.361Z,19.10
2019-04-21T06:02:19.094Z,19.87
2019-04-21T06:05:34.967Z,19.45
2019-04-21T06:08:25.692Z,18.67
2019-04-21T06:11:42.709Z,19.20
2019-04-21T06:14:39.358Z,20.57
2019-04-21T06:17:43.925Z,20.60
2019-04-21T06:20:51.658Z,24.43
2019-04-21T06:23:49.996Z,23.50
2019-04-21T06:30:00.194Z,22.95
2019-04-21T06:33:01.732Z,23.12
2019-04-21T06:39:44.819Z,20.35
2019-04-21T06:42:48.675Z,21.85
2019-04-21T06:45:54.381Z,21.07
2019-04-21T06:48:57.005Z,21.65
2019-04-21T06:52:07.552Z,23.87
2019-04-21T06:58:13.150Z,23.05
2019-04-21T07:01:15.565Z,20.72
2019-04-21T07:07:25.602Z,17.87
2019-04-21T07:10:35.415Z,15.32
2019-04-21T07:13:31.029Z,15.45
2019-04-21T07:16:47.757Z,15.53
2019-04-21T07:19:49.854Z,14.18
2019-04-21T07:22:56.845Z,16.75
2019-04-21T07:25:58.224Z,17.30
2019-04-21T07:29:23.571Z,19.12
2019-04-21T07:32:11.766Z,19.48
2019-04-21T07:35:17.814Z,19.25
2019-04-21T07:38:16.747Z,20.27
2019-04-21T07:41:21.020Z,17.87
2019-04-21T07:44:31.853Z,20.17
2019-04-21T07:47:44.516Z,19.37
2019-04-21T07:50:51.948Z,15.95
2019-04-21T07:54:08.623Z,16.97
2019-04-21T07:56:55.977Z,16.40
2019-04-21T08:03:15.492Z,12.25
2019-04-21T08:06:22.580Z,13.65
2019-04-21T08:09:25.557Z,14.63
2019-04-21T08:12:24.528Z,14.28
2019-04-21T08:15:42.695Z,14.80
2019-04-21T08:18:48.709Z,14.87
2019-04-21T08:25:01.088Z,15.57
2019-04-21T08:27:59.881Z,14.18
2019-04-21T08:31:09.837Z,12.57
2019-04-21T08:34:14.142Z,12.57
2019-04-21T08:37:21.552Z,13.27
2019-04-21T08:40:29.897Z,13.90
2019-04-21T08:43:35.700Z,13.80
2019-04-21T08:46:31.773Z,13.30
2019-04-21T08:49:42.835Z,12.20
2019-04-21T08:52:49.330Z,15.50
2019-04-21T08:56:04.380Z,16.87
2019-04-21T08:59:10.919Z,15.57
2019-04-21T09:02:29.422Z,16.03
2019-04-21T09:05:41.435Z,16.43
2019-04-21T09:08:44.440Z,15.73
2019-04-21T09:11:51.867Z,13.27
2019-04-21T09:14:52.764Z,12.27
2019-04-21T09:17:48.954Z,12.40
2019-04-21T09:21:08.345Z,11.30
2019-04-21T09:24:10.289Z,13.23
2019-04-21T09:27:10.153Z,13.13
2019-04-21T09:30:02.683Z,9.93
2019-04-21T09:33:05.717Z,4.70
2019-04-21T09:36:14.542Z,4.70
2019-04-21T09:39:20.379Z,5.43
2019-04-21T09:42:21.887Z,5.00
2019-04-21T09:45:26.579Z,4.83
2019-04-21T09:48:42.640Z,4.67
2019-04-21T09:51:37.080Z,4.67
2019-04-21T09:54:53.016Z,3.60
2019-04-21T09:57:53.584Z,3.53
2019-04-21T10:01:01.172Z,3.60
2019-04-21T10:04:00.807Z,3.63
2019-04-21T10:07:04.481Z,2.90
2019-04-21T10:10:10.849Z,3.00
2019-04-21T10:13:17.909Z,3.07
2019-04-21T10:16:42.865Z,3.47
2019-04-21T10:19:46.664Z,3.93
2019-04-21T10:22:51.535Z,3.57
2019-04-21T10:26:04.173Z,3.70
2019-04-21T10:29:14.881Z,3.80
2019-04-21T10:32:13.797Z,3.80
2019-04-21T10:35:20.674Z,3.97
2019-04-21T10:38:33.277Z,3.70
2019-04-21T10:41:29.745Z,3.20
2019-04-21T10:44:34.687Z,3.60
2019-04-21T10:47:38.903Z,3.10
2019-04-21T10:50:43.116Z,3.17
2019-04-21T10:53:52.395Z,2.93
2019-04-21T10:56:54.685Z,2.80
2019-04-21T10:59:59.862Z,2.57
2019-04-21T11:03:22.740Z,2.53
2019-04-21T11:06:26.631Z,2.43
2019-04-21T11:09:31.789Z,3.20
2019-04-21T11:12:37.682Z,2.97
2019-04-21T11:15:41.357Z,3.37
2019-04-21T11:18:46.092Z,2.83
2019-04-21T11:21:50.264Z,2.93
2019-04-21T11:24:54.115Z,3.13
2019-04-21T11:27:58.719Z,3.23
2019-04-21T11:31:02.932Z,3.00
2019-04-21T11:34:07.290Z,3.10
2019-04-21T11:37:12.856Z,3.40
2019-04-21T11:40:19.724Z,3.57
2019-04-21T11:43:23.920Z,3.77
2019-04-21T11:46:28.630Z,3.50
2019-04-21T11:49:32.787Z,3.37
2019-04-21T11:52:36.960Z,3.53
2019-04-21T11:55:43.572Z,3.50
2019-04-21T11:58:46.327Z,3.37
2019-04-21T12:01:50.170Z,2.43
2019-04-21T12:04:54.133Z,2.70
2019-04-21T12:07:58.455Z,3.20
2019-04-21T12:11:03.283Z,3.10
2019-04-21T12:14:08.038Z,3.40
2019-04-21T12:17:12.148Z,2.90
2019-04-21T12:20:16.779Z,3.00
2019-04-21T12:23:20.875Z,2.90
2019-04-21T12:26:24.694Z,2.90
2019-04-21T12:29:29.047Z,3.00
2019-04-21T12:32:52.009Z,3.00
2019-04-21T12:35:56.105Z,2.90
2019-04-21T12:39:03.283Z,2.83
2019-04-21T12:42:06.763Z,3.10
2019-04-21T12:45:12.998Z,3.20
2019-04-21T12:48:18.038Z,3.13
2019-04-21T12:51:21.989Z,3.17
2019-04-21T12:54:25.932Z,2.47
2019-04-21T12:57:31.494Z,2.70
2019-04-21T13:00:36.668Z,2.20
2019-04-21T13:03:41.799Z,2.50
2019-04-21T13:06:46.069Z,2.20
2019-04-21T13:09:50.424Z,2.30
2019-04-21T13:12:54.410Z,2.70
2019-04-21T13:15:58.254Z,2.67
2019-04-21T13:19:02.993Z,2.23
2019-04-21T13:22:07.862Z,2.30
2019-04-21T13:25:11.992Z,2.20
2019-04-21T13:28:16.552Z,2.20
2019-04-21T13:31:20.643Z,2.20
2019-04-21T13:34:24.475Z,2.10
2019-04-21T13:37:29.668Z,1.97
2019-04-21T13:41:03.767Z,2.00
2019-04-21T13:43:55.010Z,1.90
2019-04-21T13:46:58.870Z,2.00
2019-04-21T13:50:03.672Z,2.10
2019-04-21T13:53:09.046Z,1.90
2019-04-21T13:56:14.212Z,2.00
2019-04-21T13:59:18.465Z,2.33
2019-04-21T14:02:22.667Z,2.10
2019-04-21T14:05:26.633Z,2.10
2019-04-21T14:08:31.292Z,2.10
2019-04-21T14:11:35.489Z,2.20
2019-04-21T14:14:39.334Z,2.20
2019-04-21T14:17:44.565Z,2.20
2019-04-21T14:20:49.487Z,2.60
2019-04-21T14:23:54.612Z,2.50
2019-04-21T14:26:58.854Z,2.53
2019-04-21T14:30:02.957Z,2.40
2019-04-21T14:33:07.936Z,2.50
2019-04-21T14:36:12.758Z,2.50
2019-04-21T14:39:16.834Z,2.47
2019-04-21T14:42:22.105Z,2.47
2019-04-21T14:45:36.831Z,2.27
2019-04-21T14:48:45.387Z,2.60
2019-04-21T14:51:51.129Z,2.50
2019-04-21T14:54:56.514Z,2.37
2019-04-21T14:58:01.195Z,2.50
2019-04-21T15:01:06.552Z,2.73
2019-04-21T15:04:10.519Z,2.20
2019-04-21T15:07:15.019Z,2.40
2019-04-21T15:10:25.203Z,2.43
2019-04-21T15:13:25.850Z,2.30
2019-04-21T15:16:31.111Z,2.17
2019-04-21T15:19:35.147Z,2.73
2019-04-21T15:22:39.034Z,2.40
2019-04-21T15:25:43.941Z,2.80
2019-04-21T15:28:48.853Z,2.50
2019-04-21T15:31:52.775Z,2.40
2019-04-21T15:34:56.647Z,2.53
2019-04-21T15:38:01.967Z,2.50
2019-04-21T15:41:10.078Z,2.50
2019-04-21T15:44:12.472Z,2.70
2019-04-21T15:47:17.721Z,3.00
2019-04-21T15:50:23.072Z,2.93
2019-04-21T15:53:29.793Z,2.70
2019-04-21T15:56:44.851Z,2.50
2019-04-21T15:59:50.701Z,2.60
2019-04-21T16:02:54.833Z,2.60
2019-04-21T16:05:59.353Z,2.50
2019-04-21T16:09:05.101Z,2.77
2019-04-21T16:12:09.699Z,2.60
2019-04-21T16:15:14.505Z,2.80
2019-04-21T16:18:18.544Z,2.90
2019-04-21T16:21:24.186Z,2.40
2019-04-21T16:24:28.224Z,2.97
2019-04-21T16:27:33.217Z,2.53
2019-04-21T16:30:38.329Z,2.80
2019-04-21T16:33:43.201Z,2.70
2019-04-21T16:36:47.665Z,2.80
2019-04-21T16:39:51.707Z,2.67
2019-04-21T16:42:56.323Z,2.60
2019-04-21T16:46:01.325Z,2.70
2019-04-21T16:49:05.344Z,2.60
2019-04-21T16:52:14.121Z,2.87
2019-04-21T16:55:21.185Z,3.10
2019-04-21T16:58:30.742Z,3.20
2019-04-21T17:01:36.349Z,3.00
2019-04-21T17:04:40.358Z,3.10
2019-04-21T17:07:45.078Z,3.37
2019-04-21T17:11:01.473Z,3.70
2019-04-21T17:13:56.440Z,4.10
2019-04-21T17:17:27.206Z,3.87
2019-04-21T17:20:23.112Z,3.90
2019-04-21T17:23:15.711Z,4.20
2019-04-21T17:26:19.626Z,4.20
2019-04-21T17:29:24.870Z,4.27
2019-04-21T17:32:35.664Z,4.70
2019-04-21T17:35:35.213Z,4.27
2019-04-21T17:38:39.742Z,4.40
2019-04-21T17:42:00.467Z,4.60
2019-04-21T17:44:49.240Z,5.50
2019-04-21T17:47:59.834Z,5.63
2019-04-21T17:51:01.274Z,5.87
2019-04-21T17:54:24.802Z,5.87
2019-04-21T17:57:44.119Z,4.90
2019-04-21T18:01:07.805Z,4.60
2019-04-21T18:04:01.691Z,5.10
2019-04-21T18:06:57.908Z,4.97
2019-04-21T18:10:07.688Z,5.20
2019-04-21T18:13:04.446Z,6.07
2019-04-21T18:16:13.454Z,6.20
2019-04-21T18:19:08.876Z,6.50
2019-04-21T18:22:31.330Z,6.03
2019-04-21T18:25:45.087Z,5.77
2019-04-21T18:28:39.064Z,5.73
2019-04-21T18:31:48.328Z,5.67
2019-04-21T18:34:56.251Z,5.87
2019-04-21T18:38:16.970Z,5.97
2019-04-21T18:41:17.408Z,6.07
2019-04-21T18:44:53.788Z,5.90
2019-04-21T18:47:54.980Z,7.53
2019-04-21T18:51:02.857Z,9.80
2019-04-21T18:54:24.146Z,10.63
2019-04-21T18:57:18.647Z,10.67
2019-04-21T19:00:19.320Z,11.13
2019-04-21T19:03:25.342Z,11.07
2019-04-21T19:06:43.826Z,12.37
2019-04-21T19:13:20.054Z,13.33
2019-04-21T19:16:26.187Z,12.87
2019-04-21T19:19:31.654Z,13.33
2019-04-21T19:22:09.145Z,13.73
2019-04-21T19:25:16.340Z,13.97
2019-04-21T19:28:17.981Z,11.90
2019-04-21T19:31:31.902Z,10.60
2019-04-21T19:34:23.407Z,11.13
2019-04-21T19:37:24.425Z,11.67
2019-04-21T19:40:44.764Z,11.50
2019-04-21T19:43:52.202Z,11.00
2019-04-21T19:46:55.744Z,10.00
2019-04-21T19:50:03.218Z,10.87
2019-04-21T19:52:57.395Z,10.20
2019-04-21T19:55:54.103Z,10.80
2019-04-21T19:58:59.064Z,9.93
2019-04-21T20:02:04.494Z,14.30
2019-04-21T20:05:13.673Z,13.03
2019-04-21T20:08:29.137Z,15.50
2019-04-21T20:11:38.774Z,16.20
2019-04-21T20:14:55.340Z,14.17
2019-04-21T20:17:49.510Z,14.73
2019-04-21T20:20:37.287Z,17.37
2019-04-21T20:23:43.255Z,16.53
2019-04-21T20:26:58.732Z,16.67
2019-04-21T20:30:07.102Z,14.00
2019-04-21T20:33:38.125Z,14.57
2019-04-21T20:36:26.193Z,14.57
2019-04-21T20:39:13.882Z,15.07
2019-04-21T20:42:27.908Z,18.13
2019-04-21T20:45:44.258Z,20.80
2019-04-21T20:48:42.095Z,24.83
2019-04-21T20:52:01.180Z,29.17
2019-04-21T20:54:55.079Z,31.80
2019-04-21T20:57:53.736Z,32.47
2019-04-21T21:01:28.122Z,33.57
2019-04-21T21:04:06.377Z,30.60
2019-04-21T21:07:30.660Z,29.67
2019-04-21T21:10:20.487Z,30.10
2019-04-21T21:13:32.295Z,28.50
2019-04-21T21:16:41.204Z,27.87
2019-04-21T21:19:45.744Z,27.83
2019-04-21T21:22:42.323Z,28.43
2019-04-21T21:25:50.757Z,27.90
2019-04-21T21:28:52.526Z,28.57
2019-04-21T21:32:11.187Z,22.67
2019-04-21T21:35:07.973Z,18.70
2019-04-21T21:38:16.435Z,19.20
2019-04-21T21:41:14.116Z,14.10
2019-04-21T21:44:14.464Z,14.57
2019-04-21T21:47:32.144Z,13.77
2019-04-21T21:50:26.058Z,13.70
2019-04-21T21:53:28.440Z,14.00
2019-04-21T21:56:29.984Z,14.10
2019-04-21T21:59:38.119Z,14.47
2019-04-21T22:02:45.560Z,15.00
2019-04-21T22:05:53.562Z,15.13
2019-04-21T22:08:50.546Z,13.70
2019-04-21T22:11:57.924Z,15.07
2019-04-21T22:15:02.389Z,14.60
2019-04-21T22:18:25.903Z,14.93
2019-04-21T22:21:26.356Z,14.33
2019-04-21T22:24:31.516Z,14.57
2019-04-21T22:27:23.214Z,14.40
2019-04-21T22:30:34.932Z,14.40
2019-04-21T22:33:44.308Z,14.07
2019-04-21T22:36:48.856Z,13.70
2019-04-21T22:39:59.682Z,14.53
2019-04-21T22:42:59.395Z,14.97
2019-04-21T22:45:55.771Z,14.50
2019-04-21T22:49:05.430Z,14.57
2019-04-21T22:52:13.521Z,13.80
2019-04-21T22:55:19.263Z,13.70
2019-04-21T22:58:23.688Z,13.97
2019-04-21T23:01:28.229Z,15.03
2019-04-21T23:04:37.591Z,14.13
2019-04-21T23:07:40.138Z,13.80
2019-04-21T23:10:42.558Z,14.13
2019-04-21T23:13:45.126Z,13.83
2019-04-21T23:16:54.050Z,14.10
2019-04-21T23:20:19.491Z,13.77
2019-04-21T23:23:17.605Z,14.30
2019-04-21T23:26:25.259Z,13.27
2019-04-21T23:29:39.298Z,14.20
2019-04-21T23:32:31.281Z,12.43
2019-04-21T23:35:30.406Z,12.77
2019-04-21T23:38:36.327Z,13.03
2019-04-21T23:41:40.479Z,14.13
2019-04-21T23:44:44.308Z,13.97
2019-04-21T23:47:57.748Z,21.37
2019-04-21T23:50:56.755Z,20.40
2019-04-21T23:53:55.492Z,18.87
2019-04-21T23:57:05.055Z,18.53
